sensor_id;sensor_type;location;lat;lon;timestamp;temperature;humidity
39957;DHT22;48483;44.640;7.494;2023-04-03T00:01:42;13.40;74.90
39957;DHT22;48483;44.640;7.494;2023-04-03T00:04:09;13.40;75.10
39957;DHT22;48483;44.640;7.494;2023-04-03T00:06:35;13.40;74.60
39957;DHT22;48483;44.640;7.494;2023-04-03T00:09:02;13.40;74.50
39957;DHT22;48483;44.640;7.494;2023-04-03T00:11:29;13.40;74.50
39957;DHT22;48483;44.640;7.494;2023-04-03T00:13:56;13.40;74.50
39957;DHT22;48483;44.640;7.494;2023-04-03T00:16:23;13.40;73.40
39957;DHT22;48483;44.640;7.494;2023-04-03T00:18:51;13.40;72.90
39957;DHT22;48483;44.640;7.494;2023-04-03T00:21:17;13.40;73.20
39957;DHT22;48483;44.640;7.494;2023-04-03T00:23:44;13.50;72.10
39957;DHT22;48483;44.640;7.494;2023-04-03T00:26:11;13.50;70.80
39957;DHT22;48483;44.640;7.494;2023-04-03T00:28:40;13.50;69.50
39957;DHT22;48483;44.640;7.494;2023-04-03T00:31:06;13.60;68.60
39957;DHT22;48483;44.640;7.494;2023-04-03T00:33:33;13.60;67.80
39957;DHT22;48483;44.640;7.494;2023-04-03T00:36:05;13.60;67.40
39957;DHT22;48483;44.640;7.494;2023-04-03T00:38:32;13.70;67.20
39957;DHT22;48483;44.640;7.494;2023-04-03T00:40:59;13.70;67.10
39957;DHT22;48483;44.640;7.494;2023-04-03T00:43:26;13.70;66.90
39957;DHT22;48483;44.640;7.494;2023-04-03T00:45:55;13.60;66.60
39957;DHT22;48483;44.640;7.494;2023-04-03T00:48:24;13.70;66.60
39957;DHT22;48483;44.640;7.494;2023-04-03T00:50:52;13.70;66.90
39957;DHT22;48483;44.640;7.494;2023-04-03T00:53:23;13.70;66.90
39957;DHT22;48483;44.640;7.494;2023-04-03T00:55:53;13.70;66.70
39957;DHT22;48483;44.640;7.494;2023-04-03T00:58:27;13.80;66.80
39957;DHT22;48483;44.640;7.494;2023-04-03T01:00:57;13.80;66.70
39957;DHT22;48483;44.640;7.494;2023-04-03T01:03:24;13.80;66.60
39957;DHT22;48483;44.640;7.494;2023-04-03T01:05:52;13.80;66.70
39957;DHT22;48483;44.640;7.494;2023-04-03T01:08:18;13.70;66.80
39957;DHT22;48483;44.640;7.494;2023-04-03T01:10:46;13.70;67.10
39957;DHT22;48483;44.640;7.494;2023-04-03T01:13:21;13.60;68.60
39957;DHT22;48483;44.640;7.494;2023-04-03T01:15:48;13.60;70.60
39957;DHT22;48483;44.640;7.494;2023-04-03T01:18:15;13.50;71.20
39957;DHT22;48483;44.640;7.494;2023-04-03T01:24:11;13.30;73.00
39957;DHT22;48483;44.640;7.494;2023-04-03T01:26:40;13.20;74.30
39957;DHT22;48483;44.640;7.494;2023-04-03T01:29:08;13.00;75.40
39957;DHT22;48483;44.640;7.494;2023-04-03T01:31:50;12.90;76.10
39957;DHT22;48483;44.640;7.494;2023-04-03T01:34:17;12.80;76.60
39957;DHT22;48483;44.640;7.494;2023-04-03T01:36:45;12.80;75.90
39957;DHT22;48483;44.640;7.494;2023-04-03T01:39:12;12.90;75.70
39957;DHT22;48483;44.640;7.494;2023-04-03T01:41:39;12.80;75.90
39957;DHT22;48483;44.640;7.494;2023-04-03T01:44:13;12.80;76.30
39957;DHT22;48483;44.640;7.494;2023-04-03T01:46:40;12.70;76.60
39957;DHT22;48483;44.640;7.494;2023-04-03T01:49:10;12.70;76.40
39957;DHT22;48483;44.640;7.494;2023-04-03T01:51:36;12.70;75.80
39957;DHT22;48483;44.640;7.494;2023-04-03T01:54:03;12.60;76.00
39957;DHT22;48483;44.640;7.494;2023-04-03T01:56:30;12.60;76.60
39957;DHT22;48483;44.640;7.494;2023-04-03T01:58:58;12.50;77.60
39957;DHT22;48483;44.640;7.494;2023-04-03T02:01:25;12.60;76.90
39957;DHT22;48483;44.640;7.494;2023-04-03T02:03:52;12.60;76.10
39957;DHT22;48483;44.640;7.494;2023-04-03T02:06:20;12.70;75.40
39957;DHT22;48483;44.640;7.494;2023-04-03T02:08:47;12.70;74.70
39957;DHT22;48483;44.640;7.494;2023-04-03T02:11:14;12.70;75.10
39957;DHT22;48483;44.640;7.494;2023-04-03T02:13:41;12.70;75.40
39957;DHT22;48483;44.640;7.494;2023-04-03T02:16:09;12.70;77.00
39957;DHT22;48483;44.640;7.494;2023-04-03T02:18:37;12.60;77.60
39957;DHT22;48483;44.640;7.494;2023-04-03T02:21:04;12.50;78.20
39957;DHT22;48483;44.640;7.494;2023-04-03T02:23:32;12.50;78.50
39957;DHT22;48483;44.640;7.494;2023-04-03T02:26:07;12.40;78.30
39957;DHT22;48483;44.640;7.494;2023-04-03T02:28:34;12.30;78.40
39957;DHT22;48483;44.640;7.494;2023-04-03T02:31:02;12.30;78.60
39957;DHT22;48483;44.640;7.494;2023-04-03T02:33:29;12.20;78.90
39957;DHT22;48483;44.640;7.494;2023-04-03T02:35:57;12.10;79.80
39957;DHT22;48483;44.640;7.494;2023-04-03T02:38:25;12.10;80.20
39957;DHT22;48483;44.640;7.494;2023-04-03T02:40:57;12.10;80.80
39957;DHT22;48483;44.640;7.494;2023-04-03T02:43:25;12.00;80.70
39957;DHT22;48483;44.640;7.494;2023-04-03T02:45:53;11.90;80.80
39957;DHT22;48483;44.640;7.494;2023-04-03T02:48:21;11.80;80.10
39957;DHT22;48483;44.640;7.494;2023-04-03T02:50:48;11.80;79.60
39957;DHT22;48483;44.640;7.494;2023-04-03T02:53:15;11.80;79.50
39957;DHT22;48483;44.640;7.494;2023-04-03T02:55:42;11.80;79.70
39957;DHT22;48483;44.640;7.494;2023-04-03T02:58:10;11.80;80.30
39957;DHT22;48483;44.640;7.494;2023-04-03T03:00:37;11.80;80.90
39957;DHT22;48483;44.640;7.494;2023-04-03T03:03:04;11.60;81.60
39957;DHT22;48483;44.640;7.494;2023-04-03T03:05:31;11.50;81.60
39957;DHT22;48483;44.640;7.494;2023-04-03T03:07:58;11.50;82.20
39957;DHT22;48483;44.640;7.494;2023-04-03T03:10:25;11.40;82.40
39957;DHT22;48483;44.640;7.494;2023-04-03T03:12:52;11.40;82.50
39957;DHT22;48483;44.640;7.494;2023-04-03T03:15:20;11.40;82.40
39957;DHT22;48483;44.640;7.494;2023-04-03T03:17:47;11.40;82.30
39957;DHT22;48483;44.640;7.494;2023-04-03T03:20:13;11.40;82.80
39957;DHT22;48483;44.640;7.494;2023-04-03T03:22:41;11.40;82.70
39957;DHT22;48483;44.640;7.494;2023-04-03T03:25:09;11.40;81.60
39957;DHT22;48483;44.640;7.494;2023-04-03T03:27:37;11.60;80.90
39957;DHT22;48483;44.640;7.494;2023-04-03T03:30:05;11.60;80.20
39957;DHT22;48483;44.640;7.494;2023-04-03T03:32:34;11.70;78.80
39957;DHT22;48483;44.640;7.494;2023-04-03T03:35:02;11.90;75.20
39957;DHT22;48483;44.640;7.494;2023-04-03T03:37:28;12.10;72.10
39957;DHT22;48483;44.640;7.494;2023-04-03T03:39:55;12.20;70.40
39957;DHT22;48483;44.640;7.494;2023-04-03T03:42:22;12.20;69.90
39957;DHT22;48483;44.640;7.494;2023-04-03T03:44:50;12.30;69.30
39957;DHT22;48483;44.640;7.494;2023-04-03T03:47:19;12.20;74.60
39957;DHT22;48483;44.640;7.494;2023-04-03T03:49:48;11.90;76.30
39957;DHT22;48483;44.640;7.494;2023-04-03T03:52:15;11.60;77.50
39957;DHT22;48483;44.640;7.494;2023-04-03T03:54:43;11.50;77.80
39957;DHT22;48483;44.640;7.494;2023-04-03T03:57:10;11.50;78.10
39957;DHT22;48483;44.640;7.494;2023-04-03T03:59:37;11.50;78.80
39957;DHT22;48483;44.640;7.494;2023-04-03T04:02:05;11.40;79.20
39957;DHT22;48483;44.640;7.494;2023-04-03T04:04:32;11.40;79.20
39957;DHT22;48483;44.640;7.494;2023-04-03T04:07:01;11.40;80.00
39957;DHT22;48483;44.640;7.494;2023-04-03T04:09:28;11.30;80.50
39957;DHT22;48483;44.640;7.494;2023-04-03T04:11:55;11.20;81.30
39957;DHT22;48483;44.640;7.494;2023-04-03T04:14:22;11.20;81.70
39957;DHT22;48483;44.640;7.494;2023-04-03T04:16:50;11.10;82.40
39957;DHT22;48483;44.640;7.494;2023-04-03T04:19:22;11.20;82.50
39957;DHT22;48483;44.640;7.494;2023-04-03T04:21:49;11.20;82.90
39957;DHT22;48483;44.640;7.494;2023-04-03T04:24:18;11.20;82.50
39957;DHT22;48483;44.640;7.494;2023-04-03T04:26:46;11.10;83.00
39957;DHT22;48483;44.640;7.494;2023-04-03T04:29:14;11.00;83.90
39957;DHT22;48483;44.640;7.494;2023-04-03T04:31:41;11.00;83.90
39957;DHT22;48483;44.640;7.494;2023-04-03T04:34:08;10.90;83.90
39957;DHT22;48483;44.640;7.494;2023-04-03T04:36:36;10.90;84.20
39957;DHT22;48483;44.640;7.494;2023-04-03T04:39:03;10.80;84.30
39957;DHT22;48483;44.640;7.494;2023-04-03T04:41:32;10.80;84.30
39957;DHT22;48483;44.640;7.494;2023-04-03T04:44:00;10.80;84.70
39957;DHT22;48483;44.640;7.494;2023-04-03T04:46:27;10.70;84.80
39957;DHT22;48483;44.640;7.494;2023-04-03T04:48:57;10.80;85.20
39957;DHT22;48483;44.640;7.494;2023-04-03T04:51:27;10.70;85.70
39957;DHT22;48483;44.640;7.494;2023-04-03T04:53:54;10.70;85.70
39957;DHT22;48483;44.640;7.494;2023-04-03T04:56:21;10.70;85.40
39957;DHT22;48483;44.640;7.494;2023-04-03T04:58:49;10.70;85.60
39957;DHT22;48483;44.640;7.494;2023-04-03T05:01:18;10.70;85.70
39957;DHT22;48483;44.640;7.494;2023-04-03T05:03:58;10.70;85.90
39957;DHT22;48483;44.640;7.494;2023-04-03T05:06:25;10.70;86.00
39957;DHT22;48483;44.640;7.494;2023-04-03T05:08:53;10.70;86.40
39957;DHT22;48483;44.640;7.494;2023-04-03T05:11:20;10.70;86.60
39957;DHT22;48483;44.640;7.494;2023-04-03T05:13:51;10.60;85.90
39957;DHT22;48483;44.640;7.494;2023-04-03T05:16:18;10.60;85.70
39957;DHT22;48483;44.640;7.494;2023-04-03T05:18:46;10.60;85.20
39957;DHT22;48483;44.640;7.494;2023-04-03T05:21:18;10.70;84.60
39957;DHT22;48483;44.640;7.494;2023-04-03T05:23:46;10.70;83.90
39957;DHT22;48483;44.640;7.494;2023-04-03T05:26:13;10.70;83.50
39957;DHT22;48483;44.640;7.494;2023-04-03T05:28:40;10.70;83.20
39957;DHT22;48483;44.640;7.494;2023-04-03T05:31:09;10.70;83.20
39957;DHT22;48483;44.640;7.494;2023-04-03T05:33:36;10.70;83.50
39957;DHT22;48483;44.640;7.494;2023-04-03T05:36:06;10.70;83.50
39957;DHT22;48483;44.640;7.494;2023-04-03T05:38:37;10.70;82.90
39957;DHT22;48483;44.640;7.494;2023-04-03T05:41:03;10.70;82.40
39957;DHT22;48483;44.640;7.494;2023-04-03T05:43:30;10.80;82.00
39957;DHT22;48483;44.640;7.494;2023-04-03T05:45:57;10.80;82.00
39957;DHT22;48483;44.640;7.494;2023-04-03T05:48:28;10.80;81.90
39957;DHT22;48483;44.640;7.494;2023-04-03T05:50:54;10.90;81.70
39957;DHT22;48483;44.640;7.494;2023-04-03T05:53:27;10.90;81.40
39957;DHT22;48483;44.640;7.494;2023-04-03T05:55:55;11.00;82.00
39957;DHT22;48483;44.640;7.494;2023-04-03T05:58:23;11.00;81.70
39957;DHT22;48483;44.640;7.494;2023-04-03T06:00:51;11.00;81.90
39957;DHT22;48483;44.640;7.494;2023-04-03T06:03:19;11.10;81.90
39957;DHT22;48483;44.640;7.494;2023-04-03T06:05:47;11.10;82.00
39957;DHT22;48483;44.640;7.494;2023-04-03T06:08:13;11.10;81.40
39957;DHT22;48483;44.640;7.494;2023-04-03T06:10:40;11.20;81.60
39957;DHT22;48483;44.640;7.494;2023-04-03T06:13:07;11.20;81.20
39957;DHT22;48483;44.640;7.494;2023-04-03T06:15:34;11.30;80.90
39957;DHT22;48483;44.640;7.494;2023-04-03T06:18:01;11.30;81.80
39957;DHT22;48483;44.640;7.494;2023-04-03T06:20:27;11.40;82.00
39957;DHT22;48483;44.640;7.494;2023-04-03T06:22:56;11.40;82.20
39957;DHT22;48483;44.640;7.494;2023-04-03T06:25:23;11.50;82.60
39957;DHT22;48483;44.640;7.494;2023-04-03T06:27:50;11.60;82.70
39957;DHT22;48483;44.640;7.494;2023-04-03T06:30:17;11.60;82.80
39957;DHT22;48483;44.640;7.494;2023-04-03T06:32:44;11.70;83.40
39957;DHT22;48483;44.640;7.494;2023-04-03T06:35:11;11.80;83.50
39957;DHT22;48483;44.640;7.494;2023-04-03T06:37:37;11.90;82.60
39957;DHT22;48483;44.640;7.494;2023-04-03T06:40:09;12.00;82.20
39957;DHT22;48483;44.640;7.494;2023-04-03T06:42:37;12.10;82.30
39957;DHT22;48483;44.640;7.494;2023-04-03T06:45:10;12.20;81.50
39957;DHT22;48483;44.640;7.494;2023-04-03T06:47:38;12.40;80.70
39957;DHT22;48483;44.640;7.494;2023-04-03T06:50:05;12.50;79.70
39957;DHT22;48483;44.640;7.494;2023-04-03T06:52:33;12.70;78.80
39957;DHT22;48483;44.640;7.494;2023-04-03T06:54:59;12.90;77.80
39957;DHT22;48483;44.640;7.494;2023-04-03T06:57:28;13.10;75.90
39957;DHT22;48483;44.640;7.494;2023-04-03T06:59:55;13.30;75.40
39957;DHT22;48483;44.640;7.494;2023-04-03T07:02:21;13.50;72.00
39957;DHT22;48483;44.640;7.494;2023-04-03T07:04:48;13.70;71.00
39957;DHT22;48483;44.640;7.494;2023-04-03T07:07:15;13.80;69.20
39957;DHT22;48483;44.640;7.494;2023-04-03T07:09:43;14.00;67.00
39957;DHT22;48483;44.640;7.494;2023-04-03T07:12:10;14.10;66.70
39957;DHT22;48483;44.640;7.494;2023-04-03T07:14:38;14.30;66.40
39957;DHT22;48483;44.640;7.494;2023-04-03T07:17:05;14.50;65.50
39957;DHT22;48483;44.640;7.494;2023-04-03T07:19:32;14.50;64.10
39957;DHT22;48483;44.640;7.494;2023-04-03T07:21:59;14.50;64.30
39957;DHT22;48483;44.640;7.494;2023-04-03T07:24:26;14.60;64.70
39957;DHT22;48483;44.640;7.494;2023-04-03T07:26:53;14.70;67.60
39957;DHT22;48483;44.640;7.494;2023-04-03T07:29:20;14.70;70.60
39957;DHT22;48483;44.640;7.494;2023-04-03T07:31:49;14.80;72.30
39957;DHT22;48483;44.640;7.494;2023-04-03T07:34:16;14.80;73.80
39957;DHT22;48483;44.640;7.494;2023-04-03T07:36:42;15.00;74.30
39957;DHT22;48483;44.640;7.494;2023-04-03T07:39:09;15.00;74.10
39957;DHT22;48483;44.640;7.494;2023-04-03T07:41:36;15.00;73.20
39957;DHT22;48483;44.640;7.494;2023-04-03T07:44:03;15.10;72.80
39957;DHT22;48483;44.640;7.494;2023-04-03T07:46:31;15.10;72.30
39957;DHT22;48483;44.640;7.494;2023-04-03T07:48:59;15.20;72.10
39957;DHT22;48483;44.640;7.494;2023-04-03T07:51:26;15.30;71.10
39957;DHT22;48483;44.640;7.494;2023-04-03T07:53:54;15.30;69.50
39957;DHT22;48483;44.640;7.494;2023-04-03T07:56:21;15.40;68.10
39957;DHT22;48483;44.640;7.494;2023-04-03T07:58:49;15.50;67.00
39957;DHT22;48483;44.640;7.494;2023-04-03T08:01:15;15.50;63.50
39957;DHT22;48483;44.640;7.494;2023-04-03T08:03:42;15.70;64.70
39957;DHT22;48483;44.640;7.494;2023-04-03T08:06:11;15.70;63.80
39957;DHT22;48483;44.640;7.494;2023-04-03T08:08:37;15.80;63.60
39957;DHT22;48483;44.640;7.494;2023-04-03T08:11:04;15.90;62.40
39957;DHT22;48483;44.640;7.494;2023-04-03T08:13:32;15.90;62.50
39957;DHT22;48483;44.640;7.494;2023-04-03T08:16:07;16.00;62.30
39957;DHT22;48483;44.640;7.494;2023-04-03T08:18:34;16.20;62.50
39957;DHT22;48483;44.640;7.494;2023-04-03T08:21:05;16.20;60.30
39957;DHT22;48483;44.640;7.494;2023-04-03T08:23:34;16.20;60.50
39957;DHT22;48483;44.640;7.494;2023-04-03T08:26:06;16.40;61.80
39957;DHT22;48483;44.640;7.494;2023-04-03T08:28:33;16.40;61.50
39957;DHT22;48483;44.640;7.494;2023-04-03T08:31:03;16.30;62.80
39957;DHT22;48483;44.640;7.494;2023-04-03T08:33:31;16.30;63.20
39957;DHT22;48483;44.640;7.494;2023-04-03T08:35:57;16.30;63.10
39957;DHT22;48483;44.640;7.494;2023-04-03T08:38:24;16.50;63.30
39957;DHT22;48483;44.640;7.494;2023-04-03T08:41:04;16.60;62.20
39957;DHT22;48483;44.640;7.494;2023-04-03T08:43:38;16.50;63.00
39957;DHT22;48483;44.640;7.494;2023-04-03T08:46:13;16.60;65.40
39957;DHT22;48483;44.640;7.494;2023-04-03T08:48:43;16.70;66.00
39957;DHT22;48483;44.640;7.494;2023-04-03T08:51:13;16.70;64.80
39957;DHT22;48483;44.640;7.494;2023-04-03T08:53:46;16.80;65.30
39957;DHT22;48483;44.640;7.494;2023-04-03T08:56:17;16.80;65.40
39957;DHT22;48483;44.640;7.494;2023-04-03T08:58:48;16.80;65.10
39957;DHT22;48483;44.640;7.494;2023-04-03T09:01:20;16.80;65.70
39957;DHT22;48483;44.640;7.494;2023-04-03T09:03:47;16.80;66.40
39957;DHT22;48483;44.640;7.494;2023-04-03T09:06:17;16.90;65.70
39957;DHT22;48483;44.640;7.494;2023-04-03T09:08:50;17.00;64.70
39957;DHT22;48483;44.640;7.494;2023-04-03T09:11:24;17.10;64.00
39957;DHT22;48483;44.640;7.494;2023-04-03T09:13:56;17.10;61.80
39957;DHT22;48483;44.640;7.494;2023-04-03T09:16:35;17.10;61.50
39957;DHT22;48483;44.640;7.494;2023-04-03T09:19:09;17.20;61.40
39957;DHT22;48483;44.640;7.494;2023-04-03T09:21:39;17.20;59.70
39957;DHT22;48483;44.640;7.494;2023-04-03T09:24:11;17.10;59.80
39957;DHT22;48483;44.640;7.494;2023-04-03T09:26:44;17.10;59.70
39957;DHT22;48483;44.640;7.494;2023-04-03T09:29:17;17.20;59.60
39957;DHT22;48483;44.640;7.494;2023-04-03T09:31:44;17.40;58.50
39957;DHT22;48483;44.640;7.494;2023-04-03T09:34:18;17.40;57.50
39957;DHT22;48483;44.640;7.494;2023-04-03T09:36:49;17.40;57.20
39957;DHT22;48483;44.640;7.494;2023-04-03T09:39:18;17.40;57.40
39957;DHT22;48483;44.640;7.494;2023-04-03T09:41:58;17.30;56.60
39957;DHT22;48483;44.640;7.494;2023-04-03T09:44:26;17.20;55.50
39957;DHT22;48483;44.640;7.494;2023-04-03T09:46:53;17.30;55.60
39957;DHT22;48483;44.640;7.494;2023-04-03T09:49:20;17.50;55.80
39957;DHT22;48483;44.640;7.494;2023-04-03T09:51:46;17.80;54.90
39957;DHT22;48483;44.640;7.494;2023-04-03T09:54:36;17.70;53.20
39957;DHT22;48483;44.640;7.494;2023-04-03T09:57:08;17.70;54.10
39957;DHT22;48483;44.640;7.494;2023-04-03T09:59:40;17.70;53.80
39957;DHT22;48483;44.640;7.494;2023-04-03T10:02:22;17.70;54.40
39957;DHT22;48483;44.640;7.494;2023-04-03T10:04:49;17.90;53.30
39957;DHT22;48483;44.640;7.494;2023-04-03T10:07:34;18.00;50.40
39957;DHT22;48483;44.640;7.494;2023-04-03T10:10:16;17.90;47.90
39957;DHT22;48483;44.640;7.494;2023-04-03T10:12:45;17.90;48.30
39957;DHT22;48483;44.640;7.494;2023-04-03T10:15:13;18.00;48.90
39957;DHT22;48483;44.640;7.494;2023-04-03T10:17:49;18.10;48.50
39957;DHT22;48483;44.640;7.494;2023-04-03T10:20:27;18.00;46.50
39957;DHT22;48483;44.640;7.494;2023-04-03T10:23:02;18.00;46.00
39957;DHT22;48483;44.640;7.494;2023-04-03T10:25:36;18.20;44.40
39957;DHT22;48483;44.640;7.494;2023-04-03T10:28:10;18.30;43.80
39957;DHT22;48483;44.640;7.494;2023-04-03T10:30:47;18.10;42.40
39957;DHT22;48483;44.640;7.494;2023-04-03T10:33:27;18.10;43.00
39957;DHT22;48483;44.640;7.494;2023-04-03T10:36:06;18.10;43.40
39957;DHT22;48483;44.640;7.494;2023-04-03T10:38:46;18.00;44.30
39957;DHT22;48483;44.640;7.494;2023-04-03T10:41:17;18.10;44.70
39957;DHT22;48483;44.640;7.494;2023-04-03T10:43:56;18.10;44.70
39957;DHT22;48483;44.640;7.494;2023-04-03T10:46:30;18.20;43.70
39957;DHT22;48483;44.640;7.494;2023-04-03T10:49:11;18.10;43.80
39957;DHT22;48483;44.640;7.494;2023-04-03T10:51:43;18.20;44.30
39957;DHT22;48483;44.640;7.494;2023-04-03T10:54:12;18.30;44.70
39957;DHT22;48483;44.640;7.494;2023-04-03T10:56:42;18.20;45.00
39957;DHT22;48483;44.640;7.494;2023-04-03T10:59:18;18.20;44.20
39957;DHT22;48483;44.640;7.494;2023-04-03T11:01:51;18.20;43.70
39957;DHT22;48483;44.640;7.494;2023-04-03T11:04:20;18.30;43.40
39957;DHT22;48483;44.640;7.494;2023-04-03T11:06:49;18.40;45.40
39957;DHT22;48483;44.640;7.494;2023-04-03T11:09:22;18.40;44.80
39957;DHT22;48483;44.640;7.494;2023-04-03T11:11:53;18.30;43.60
39957;DHT22;48483;44.640;7.494;2023-04-03T11:14:26;18.40;43.70
39957;DHT22;48483;44.640;7.494;2023-04-03T11:17:01;18.50;44.10
39957;DHT22;48483;44.640;7.494;2023-04-03T11:19:34;18.50;44.50
39957;DHT22;48483;44.640;7.494;2023-04-03T11:22:09;18.70;45.30
39957;DHT22;48483;44.640;7.494;2023-04-03T11:24:40;18.80;44.20
39957;DHT22;48483;44.640;7.494;2023-04-03T11:27:11;18.60;42.60
39957;DHT22;48483;44.640;7.494;2023-04-03T11:29:45;18.70;42.00
39957;DHT22;48483;44.640;7.494;2023-04-03T11:32:27;18.80;43.00
39957;DHT22;48483;44.640;7.494;2023-04-03T11:34:59;18.90;42.90
39957;DHT22;48483;44.640;7.494;2023-04-03T11:37:31;18.90;41.30
39957;DHT22;48483;44.640;7.494;2023-04-03T11:40:02;18.90;41.90
39957;DHT22;48483;44.640;7.494;2023-04-03T11:42:33;18.90;40.80
39957;DHT22;48483;44.640;7.494;2023-04-03T11:45:36;18.90;40.40
39957;DHT22;48483;44.640;7.494;2023-04-03T11:48:06;18.90;41.00
39957;DHT22;48483;44.640;7.494;2023-04-03T11:50:44;18.80;42.30
39957;DHT22;48483;44.640;7.494;2023-04-03T11:53:33;18.80;40.70
39957;DHT22;48483;44.640;7.494;2023-04-03T11:56:03;18.80;40.70
39957;DHT22;48483;44.640;7.494;2023-04-03T11:58:32;18.80;40.70
39957;DHT22;48483;44.640;7.494;2023-04-03T12:01:06;18.80;40.70
39957;DHT22;48483;44.640;7.494;2023-04-03T12:09:56;18.90;39.80
39957;DHT22;48483;44.640;7.494;2023-04-03T12:12:32;18.90;39.90
39957;DHT22;48483;44.640;7.494;2023-04-03T12:21:09;19.00;41.10
39957;DHT22;48483;44.640;7.494;2023-04-03T12:23:37;19.00;39.90
39957;DHT22;48483;44.640;7.494;2023-04-03T12:26:24;19.00;40.20
39957;DHT22;48483;44.640;7.494;2023-04-03T12:28:53;18.90;40.30
39957;DHT22;48483;44.640;7.494;2023-04-03T12:31:24;18.80;40.10
39957;DHT22;48483;44.640;7.494;2023-04-03T12:34:01;18.90;40.50
39957;DHT22;48483;44.640;7.494;2023-04-03T12:36:41;19.00;40.80
39957;DHT22;48483;44.640;7.494;2023-04-03T12:39:37;19.10;40.70
39957;DHT22;48483;44.640;7.494;2023-04-03T12:42:18;19.00;40.00
39957;DHT22;48483;44.640;7.494;2023-04-03T12:44:56;19.10;40.50
39957;DHT22;48483;44.640;7.494;2023-04-03T12:47:31;19.10;39.90
39957;DHT22;48483;44.640;7.494;2023-04-03T12:49:59;19.10;40.00
39957;DHT22;48483;44.640;7.494;2023-04-03T12:52:37;19.10;40.70
39957;DHT22;48483;44.640;7.494;2023-04-03T12:55:12;19.10;40.30
39957;DHT22;48483;44.640;7.494;2023-04-03T12:57:40;19.00;39.90
39957;DHT22;48483;44.640;7.494;2023-04-03T13:00:30;19.00;40.30
39957;DHT22;48483;44.640;7.494;2023-04-03T13:02:59;19.00;40.40
39957;DHT22;48483;44.640;7.494;2023-04-03T13:05:28;19.10;40.10
39957;DHT22;48483;44.640;7.494;2023-04-03T13:08:00;19.10;40.20
39957;DHT22;48483;44.640;7.494;2023-04-03T13:10:28;19.20;40.10
39957;DHT22;48483;44.640;7.494;2023-04-03T13:12:56;19.10;40.00
39957;DHT22;48483;44.640;7.494;2023-04-03T13:15:25;19.10;40.10
39957;DHT22;48483;44.640;7.494;2023-04-03T13:17:55;19.10;40.50
39957;DHT22;48483;44.640;7.494;2023-04-03T13:20:25;19.10;40.60
39957;DHT22;48483;44.640;7.494;2023-04-03T13:22:53;19.20;40.60
39957;DHT22;48483;44.640;7.494;2023-04-03T13:25:24;19.20;40.30
39957;DHT22;48483;44.640;7.494;2023-04-03T13:27:52;19.20;39.70
39957;DHT22;48483;44.640;7.494;2023-04-03T13:30:23;19.10;39.90
39957;DHT22;48483;44.640;7.494;2023-04-03T13:32:52;19.10;39.80
39957;DHT22;48483;44.640;7.494;2023-04-03T13:35:31;19.00;39.90
39957;DHT22;48483;44.640;7.494;2023-04-03T13:38:00;19.00;39.40
39957;DHT22;48483;44.640;7.494;2023-04-03T13:40:28;19.10;39.50
39957;DHT22;48483;44.640;7.494;2023-04-03T13:43:03;19.10;39.20
39957;DHT22;48483;44.640;7.494;2023-04-03T13:45:32;19.00;39.50
39957;DHT22;48483;44.640;7.494;2023-04-03T13:48:15;19.00;39.80
39957;DHT22;48483;44.640;7.494;2023-04-03T13:50:57;19.10;39.30
39957;DHT22;48483;44.640;7.494;2023-04-03T13:53:24;19.10;38.60
39957;DHT22;48483;44.640;7.494;2023-04-03T13:55:58;19.10;38.70
39957;DHT22;48483;44.640;7.494;2023-04-03T13:58:27;19.10;38.30
39957;DHT22;48483;44.640;7.494;2023-04-03T14:00:56;19.00;38.80
39957;DHT22;48483;44.640;7.494;2023-04-03T14:03:34;19.00;38.70
39957;DHT22;48483;44.640;7.494;2023-04-03T14:06:05;19.10;39.20
39957;DHT22;48483;44.640;7.494;2023-04-03T14:08:32;19.10;39.50
39957;DHT22;48483;44.640;7.494;2023-04-03T14:11:00;19.10;38.80
39957;DHT22;48483;44.640;7.494;2023-04-03T14:13:30;19.10;39.00
39957;DHT22;48483;44.640;7.494;2023-04-03T14:15:58;19.10;39.00
39957;DHT22;48483;44.640;7.494;2023-04-03T14:18:24;19.10;38.60
39957;DHT22;48483;44.640;7.494;2023-04-03T14:20:51;19.10;38.60
39957;DHT22;48483;44.640;7.494;2023-04-03T14:23:18;19.00;34.00
39957;DHT22;48483;44.640;7.494;2023-04-03T14:25:45;19.00;32.60
39957;DHT22;48483;44.640;7.494;2023-04-03T14:28:16;19.10;32.60
39957;DHT22;48483;44.640;7.494;2023-04-03T14:30:43;19.10;32.30
39957;DHT22;48483;44.640;7.494;2023-04-03T14:33:13;19.10;32.70
39957;DHT22;48483;44.640;7.494;2023-04-03T14:35:41;19.10;33.30
39957;DHT22;48483;44.640;7.494;2023-04-03T14:38:21;19.10;33.50
39957;DHT22;48483;44.640;7.494;2023-04-03T14:40:49;19.20;34.00
39957;DHT22;48483;44.640;7.494;2023-04-03T14:43:17;19.20;34.20
39957;DHT22;48483;44.640;7.494;2023-04-03T14:45:45;19.20;33.50
39957;DHT22;48483;44.640;7.494;2023-04-03T14:48:17;19.20;34.30
39957;DHT22;48483;44.640;7.494;2023-04-03T14:50:44;19.20;33.70
39957;DHT22;48483;44.640;7.494;2023-04-03T14:53:11;19.20;31.40
39957;DHT22;48483;44.640;7.494;2023-04-03T14:55:39;19.20;31.40
39957;DHT22;48483;44.640;7.494;2023-04-03T14:58:07;19.20;31.60
39957;DHT22;48483;44.640;7.494;2023-04-03T15:00:36;19.10;32.00
39957;DHT22;48483;44.640;7.494;2023-04-03T15:03:02;19.10;32.30
39957;DHT22;48483;44.640;7.494;2023-04-03T15:05:29;19.10;31.30
39957;DHT22;48483;44.640;7.494;2023-04-03T15:07:57;19.10;31.20
39957;DHT22;48483;44.640;7.494;2023-04-03T15:10:27;19.10;31.70
39957;DHT22;48483;44.640;7.494;2023-04-03T15:12:54;19.00;32.00
39957;DHT22;48483;44.640;7.494;2023-04-03T15:15:23;19.00;32.50
39957;DHT22;48483;44.640;7.494;2023-04-03T15:17:53;18.90;32.30
39957;DHT22;48483;44.640;7.494;2023-04-03T15:20:22;18.90;32.90
39957;DHT22;48483;44.640;7.494;2023-04-03T15:22:50;18.90;33.50
39957;DHT22;48483;44.640;7.494;2023-04-03T15:25:17;18.80;34.10
39957;DHT22;48483;44.640;7.494;2023-04-03T15:27:44;18.70;34.10
39957;DHT22;48483;44.640;7.494;2023-04-03T15:30:14;18.70;34.40
39957;DHT22;48483;44.640;7.494;2023-04-03T15:32:41;18.60;34.30
39957;DHT22;48483;44.640;7.494;2023-04-03T15:35:10;18.70;34.60
39957;DHT22;48483;44.640;7.494;2023-04-03T15:37:36;18.70;34.70
39957;DHT22;48483;44.640;7.494;2023-04-03T15:40:04;18.80;34.90
39957;DHT22;48483;44.640;7.494;2023-04-03T15:42:31;18.90;34.70
39957;DHT22;48483;44.640;7.494;2023-04-03T15:44:58;18.80;34.20
39957;DHT22;48483;44.640;7.494;2023-04-03T15:47:25;18.80;34.10
39957;DHT22;48483;44.640;7.494;2023-04-03T15:49:53;18.70;34.30
39957;DHT22;48483;44.640;7.494;2023-04-03T15:52:21;18.80;34.30
39957;DHT22;48483;44.640;7.494;2023-04-03T15:54:48;18.90;34.70
39957;DHT22;48483;44.640;7.494;2023-04-03T15:57:15;18.90;35.10
39957;DHT22;48483;44.640;7.494;2023-04-03T15:59:41;19.00;34.90
39957;DHT22;48483;44.640;7.494;2023-04-03T16:02:10;19.00;35.10